Time,TemperatureF,DewpointF,PressureIn,WindDirection,WindDirectionDegrees,WindSpeedMPH,WindSpeedGustMPH,Humidity,HourlyPrecipIn,Conditions,Clouds,dailyrainin,SoftwareType,DateUTC
2013-09-28 00:01:00,54.2,48.5,30.21,WSW,248,0.0,0.0,81,0.00,,,0.00,WUHU216HW,2013-09-28 04:01:00,
2013-09-28 00:06:00,54.2,48.5,30.21,WSW,248,0.0,0.2,81,0.00,,,0.00,WUHU216HW,2013-09-28 04:06:00,
2013-09-28 00:11:00,54.2,48.5,30.21,WSW,248,0.0,0.2,81,0.00,,,0.00,WUHU216HW,2013-09-28 04:11:00,
2013-09-28 00:16:00,54.2,48.5,30.21,WSW,248,0.0,0.0,81,0.00,,,0.00,WUHU216HW,2013-09-28 04:16:00,
2013-09-28 00:21:00,54.2,48.5,30.21,WSW,248,0.0,0.0,81,0.00,,,0.00,WUHU216HW,2013-09-28 04:21:00,
2013-09-28 00:26:00,54.2,48.5,30.21,WSW,248,0.0,0.0,81,0.00,,,0.00,WUHU216HW,2013-09-28 04:26:00,
2013-09-28 00:31:00,54.2,48.5,30.21,WSW,248,0.0,0.0,81,0.00,,,0.00,WUHU216HW,2013-09-28 04:31:00,
2013-09-28 00:36:00,54.2,48.8,30.22,WNW,293,0.4,0.7,82,0.00,,,0.00,WUHU216HW,2013-09-28 04:36:00,
2013-09-28 00:41:00,54.2,48.8,30.22,WNW,293,0.0,0.7,82,0.00,,,0.00,WUHU216HW,2013-09-28 04:41:00,
2013-09-28 00:46:00,54.2,48.8,30.22,WNW,293,0.0,0.0,82,0.00,,,0.00,WUHU216HW,2013-09-28 04:46:00,
2013-09-28 00:51:00,54.2,48.8,30.22,WNW,293,0.0,0.0,82,0.00,,,0.00,WUHU216HW,2013-09-28 04:51:00,
2013-09-28 00:56:00,54.2,48.8,30.22,WNW,293,0.2,0.2,82,0.00,,,0.00,WUHU216HW,2013-09-28 04:56:00,
2013-09-28 01:01:00,54.2,48.8,30.22,WNW,293,0.0,0.2,82,0.00,,,0.00,WUHU216HW,2013-09-28 05:01:00,
2013-09-28 01:06:00,54.2,48.8,30.22,WNW,293,0.0,0.2,82,0.00,,,0.00,WUHU216HW,2013-09-28 05:06:00,
2013-09-28 01:11:00,54.2,48.8,30.22,WNW,293,0.0,0.0,82,0.00,,,0.00,WUHU216HW,2013-09-28 05:11:00,
2013-09-28 01:16:00,54.2,48.8,30.22,WNW,293,0.0,0.2,82,0.00,,,0.00,WUHU216HW,2013-09-28 05:16:00,
2013-09-28 01:21:00,54.2,48.8,30.22,WNW,293,0.0,0.2,82,0.00,,,0.00,WUHU216HW,2013-09-28 05:21:00,
2013-09-28 01:26:00,54.2,48.8,30.22,WNW,293,0.0,0.0,82,0.00,,,0.00,WUHU216HW,2013-09-28 05:26:00,
2013-09-28 01:31:00,54.2,48.8,30.22,WNW,293,0.0,0.0,82,0.00,,,0.00,WUHU216HW,2013-09-28 05:31:00,
2013-09-28 01:36:00,54.2,48.8,30.22,WNW,293,0.0,0.0,82,0.00,,,0.00,WUHU216HW,2013-09-28 05:36:00,
2013-09-28 01:41:00,54.3,48.9,30.22,WNW,293,0.0,0.0,82,0.00,,,0.00,WUHU216HW,2013-09-28 05:41:00,
2013-09-28 01:46:00,54.3,48.9,30.22,WNW,293,0.0,0.0,82,0.00,,,0.00,WUHU216HW,2013-09-28 05:46:00,
2013-09-28 01:51:00,54.3,48.9,30.22,WNW,293,0.0,0.0,82,0.00,,,0.00,WUHU216HW,2013-09-28 05:51:00,
2013-09-28 01:56:00,54.3,48.9,30.22,WNW,293,0.0,0.0,82,0.00,,,0.00,WUHU216HW,2013-09-28 05:56:00,
2013-09-28 02:01:00,54.3,48.9,30.22,WNW,293,0.0,0.0,82,0.00,,,0.00,WUHU216HW,2013-09-28 06:01:00,
2013-09-28 02:06:00,54.3,48.9,30.22,WNW,293,0.0,0.0,82,0.00,,,0.00,WUHU216HW,2013-09-28 06:06:00,
2013-09-28 02:11:00,54.3,48.9,30.22,WNW,293,0.0,0.0,82,0.00,,,0.00,WUHU216HW,2013-09-28 06:11:00,
2013-09-28 02:16:00,54.3,48.9,30.22,WNW,293,0.0,0.0,82,0.00,,,0.00,WUHU216HW,2013-09-28 06:16:00,
2013-09-28 02:21:00,54.3,48.9,30.22,WNW,293,0.0,0.0,82,0.00,,,0.00,WUHU216HW,2013-09-28 06:21:00,
2013-09-28 02:26:00,54.2,48.8,30.21,WNW,293,0.0,0.0,82,0.00,,,0.00,WUHU216HW,2013-09-28 06:26:00,
2013-09-28 02:31:00,54.2,48.8,30.21,SW,225,0.0,0.0,82,0.00,,,0.00,WUHU216HW,2013-09-28 06:31:00,
2013-09-28 02:36:00,54.2,48.8,30.22,SW,225,0.0,0.0,82,0.00,,,0.00,WUHU216HW,2013-09-28 06:36:00,
2013-09-28 02:41:00,54.2,48.8,30.21,NE,45,0.2,0.4,82,0.00,,,0.00,WUHU216HW,2013-09-28 06:41:00,
2013-09-28 02:46:00,54.2,48.8,30.21,NNW,338,0.4,0.4,82,0.00,,,0.00,WUHU216HW,2013-09-28 06:46:00,
2013-09-28 02:51:00,54.2,48.8,30.21,North,0,0.0,0.4,82,0.00,,,0.00,WUHU216HW,2013-09-28 06:51:00,
2013-09-28 02:56:00,54.2,48.8,30.21,NW,315,0.7,1.1,82,0.00,,,0.00,WUHU216HW,2013-09-28 06:56:00,
2013-09-28 03:01:00,54.0,48.7,30.22,NNE,23,0.0,1.1,82,0.00,,,0.00,WUHU216HW,2013-09-28 07:01:00,
2013-09-28 03:06:00,54.0,48.7,30.22,NNE,23,0.4,0.4,82,0.00,,,0.00,WUHU216HW,2013-09-28 07:06:00,
2013-09-28 03:11:00,54.0,48.7,30.22,NNW,338,0.0,0.4,82,0.00,,,0.00,WUHU216HW,2013-09-28 07:11:00,
2013-09-28 03:16:00,54.0,48.7,30.21,NE,45,0.0,0.7,82,0.00,,,0.00,WUHU216HW,2013-09-28 07:16:00,
2013-09-28 03:21:00,53.8,48.8,30.21,North,0,0.2,0.7,83,0.00,,,0.00,WUHU216HW,2013-09-28 07:21:00,
2013-09-28 03:26:00,53.8,48.8,30.21,NE,45,0.0,0.9,83,0.00,,,0.00,WUHU216HW,2013-09-28 07:26:00,
2013-09-28 03:31:00,53.8,48.5,30.21,NNW,338,0.2,0.9,82,0.00,,,0.00,WUHU216HW,2013-09-28 07:31:00,
2013-09-28 03:36:00,53.8,48.5,30.21,NNW,338,0.2,0.4,82,0.00,,,0.00,WUHU216HW,2013-09-28 07:36:00,
2013-09-28 03:41:00,53.6,48.3,30.21,North,0,0.0,1.1,82,0.00,,,0.00,WUHU216HW,2013-09-28 07:41:00,
2013-09-28 03:46:00,53.6,48.3,30.21,North,0,0.7,1.1,82,0.00,,,0.00,WUHU216HW,2013-09-28 07:46:00,
2013-09-28 03:51:00,53.6,48.3,30.21,West,270,0.2,0.9,82,0.00,,,0.00,WUHU216HW,2013-09-28 07:51:00,
2013-09-28 03:56:00,53.4,48.1,30.21,NNW,338,0.0,0.9,82,0.00,,,0.00,WUHU216HW,2013-09-28 07:56:00,
2013-09-28 04:01:00,53.4,48.1,30.21,NNE,23,0.4,0.4,82,0.00,,,0.00,WUHU216HW,2013-09-28 08:01:00,
2013-09-28 04:06:00,53.4,48.1,30.21,NNE,23,0.9,1.6,82,0.00,,,0.00,WUHU216HW,2013-09-28 08:06:00,
2013-09-28 04:11:00,53.4,48.1,30.21,NNW,338,0.0,1.1,82,0.00,,,0.00,WUHU216HW,2013-09-28 08:11:00,
2013-09-28 04:16:00,53.3,48.0,30.21,North,0,0.9,1.1,82,0.00,,,0.00,WUHU216HW,2013-09-28 08:16:00,
2013-09-28 04:21:00,53.3,48.0,30.21,NE,45,0.0,0.9,82,0.00,,,0.00,WUHU216HW,2013-09-28 08:21:00,
2013-09-28 04:26:00,53.1,47.8,30.22,NNE,23,0.0,0.0,82,0.00,,,0.00,WUHU216HW,2013-09-28 08:26:00,
2013-09-28 04:32:00,53.1,47.8,30.22,NNE,23,0.0,0.4,82,0.00,,,0.00,WUHU216HW,2013-09-28 08:32:00,
2013-09-28 04:37:00,52.9,47.6,30.22,East,90,0.2,0.4,82,0.00,,,0.00,WUHU216HW,2013-09-28 08:37:00,
2013-09-28 04:42:00,52.7,47.4,30.22,NNE,23,0.2,0.2,82,0.00,,,0.00,WUHU216HW,2013-09-28 08:42:00,
2013-09-28 04:47:00,52.7,47.4,30.22,NNE,23,0.0,0.2,82,0.00,,,0.00,WUHU216HW,2013-09-28 08:47:00,
2013-09-28 04:52:00,52.5,47.2,30.22,NE,45,0.0,0.2,82,0.00,,,0.00,WUHU216HW,2013-09-28 08:52:00,
2013-09-28 04:57:00,52.4,47.1,30.22,NNW,338,0.0,0.4,82,0.00,,,0.00,WUHU216HW,2013-09-28 08:57:00,
2013-09-28 05:02:00,52.2,46.9,30.22,North,0,0.0,0.4,82,0.00,,,0.00,WUHU216HW,2013-09-28 09:02:00,
2013-09-28 05:07:00,52.2,46.9,30.22,North,0,0.0,0.2,82,0.00,,,0.00,WUHU216HW,2013-09-28 09:07:00,
2013-09-28 05:12:00,52.0,46.7,30.22,North,0,0.0,0.0,82,0.00,,,0.00,WUHU216HW,2013-09-28 09:12:00,
2013-09-28 05:17:00,52.0,46.7,30.23,North,0,0.0,0.4,82,0.00,,,0.00,WUHU216HW,2013-09-28 09:17:00,
2013-09-28 05:22:00,51.8,46.5,30.23,North,0,0.0,0.4,82,0.00,,,0.00,WUHU216HW,2013-09-28 09:22:00,
2013-09-28 05:27:00,51.6,46.3,30.23,North,0,0.0,0.0,82,0.00,,,0.00,WUHU216HW,2013-09-28 09:27:00,
2013-09-28 05:32:00,51.6,46.3,30.23,West,270,0.2,0.2,82,0.00,,,0.00,WUHU216HW,2013-09-28 09:32:00,
2013-09-28 05:37:00,51.5,46.2,30.23,NNE,23,0.0,0.2,82,0.00,,,0.00,WUHU216HW,2013-09-28 09:37:00,
2013-09-28 05:42:00,51.3,46.3,30.23,NE,45,0.0,0.4,83,0.00,,,0.00,WUHU216HW,2013-09-28 09:42:00,
2013-09-28 05:47:00,51.3,46.3,30.23,West,270,0.0,0.7,83,0.00,,,0.00,WUHU216HW,2013-09-28 09:47:00,
2013-09-28 05:52:00,51.1,46.1,30.23,West,270,0.0,0.7,83,0.00,,,0.00,WUHU216HW,2013-09-28 09:52:00,
2013-09-28 05:57:00,50.9,45.9,30.23,West,270,0.0,0.0,83,0.00,,,0.00,WUHU216HW,2013-09-28 09:57:00,
2013-09-28 06:02:00,50.9,45.9,30.23,West,270,0.0,0.0,83,0.00,,,0.00,WUHU216HW,2013-09-28 10:02:00,
2013-09-28 06:07:00,50.7,45.7,30.23,West,270,0.0,0.0,83,0.00,,,0.00,WUHU216HW,2013-09-28 10:07:00,
2013-09-28 06:12:00,50.7,45.7,30.23,SE,135,0.0,0.4,83,0.00,,,0.00,WUHU216HW,2013-09-28 10:12:00,
2013-09-28 06:17:00,50.6,45.6,30.24,SE,135,0.0,0.4,83,0.00,,,0.00,WUHU216HW,2013-09-28 10:17:00,
2013-09-28 06:22:00,50.4,45.4,30.24,SE,135,0.0,0.0,83,0.00,,,0.00,WUHU216HW,2013-09-28 10:22:00,
2013-09-28 06:27:00,50.4,45.4,30.24,SE,135,0.0,0.0,83,0.00,,,0.00,WUHU216HW,2013-09-28 10:27:00,
2013-09-28 06:32:00,50.2,45.2,30.24,SE,135,0.0,0.0,83,0.00,,,0.00,WUHU216HW,2013-09-28 10:32:00,
2013-09-28 06:37:00,50.2,45.2,30.24,WNW,293,0.0,0.2,83,0.00,,,0.00,WUHU216HW,2013-09-28 10:37:00,
2013-09-28 06:42:00,50.0,45.0,30.25,WNW,293,0.0,0.2,83,0.00,,,0.00,WUHU216HW,2013-09-28 10:42:00,
2013-09-28 06:47:00,50.0,45.4,30.25,WNW,293,0.4,0.4,84,0.00,,,0.00,WUHU216HW,2013-09-28 10:47:00,
2013-09-28 06:52:00,49.8,45.2,30.25,West,270,0.0,0.4,84,0.00,,,0.00,WUHU216HW,2013-09-28 10:52:00,
2013-09-28 06:57:00,49.8,45.2,30.25,SW,225,0.0,0.0,84,0.00,,,0.00,WUHU216HW,2013-09-28 10:57:00,
2013-09-28 07:02:00,49.7,45.1,30.25,SE,135,0.0,0.7,84,0.00,,,0.00,WUHU216HW,2013-09-28 11:02:00,
2013-09-28 07:07:00,49.7,45.1,30.25,SE,135,0.0,0.7,84,0.00,,,0.00,WUHU216HW,2013-09-28 11:07:00,
2013-09-28 07:12:00,49.5,44.9,30.25,West,270,0.2,0.4,84,0.00,,,0.00,WUHU216HW,2013-09-28 11:12:00,
2013-09-28 07:17:00,49.5,44.9,30.25,SW,225,0.4,0.4,84,0.00,,,0.00,WUHU216HW,2013-09-28 11:17:00,
2013-09-28 07:22:00,49.5,44.9,30.25,North,0,0.0,0.4,84,0.00,,,0.00,WUHU216HW,2013-09-28 11:22:00,
2013-09-28 07:27:00,49.5,45.2,30.26,North,0,0.0,0.9,85,0.00,,,0.00,WUHU216HW,2013-09-28 11:27:00,
2013-09-28 07:32:00,49.5,45.2,30.25,North,0,0.0,0.9,85,0.00,,,0.00,WUHU216HW,2013-09-28 11:32:00,
2013-09-28 07:37:00,49.5,45.2,30.26,NNE,23,0.0,0.7,85,0.00,,,0.00,WUHU216HW,2013-09-28 11:37:00,
2013-09-28 07:42:00,49.5,45.2,30.26,North,0,0.0,0.7,85,0.00,,,0.00,WUHU216HW,2013-09-28 11:42:00,
2013-09-28 07:47:00,49.5,45.2,30.25,NNE,23,0.2,0.4,85,0.00,,,0.00,WUHU216HW,2013-09-28 11:47:00,
2013-09-28 07:52:00,49.5,45.2,30.26,North,0,0.0,0.4,85,0.00,,,0.00,WUHU216HW,2013-09-28 11:52:00,
2013-09-28 07:57:00,49.5,45.2,30.26,West,270,0.2,0.4,85,0.00,,,0.00,WUHU216HW,2013-09-28 11:57:00,
2013-09-28 08:02:00,49.7,45.4,30.26,West,270,0.4,0.4,85,0.00,,,0.00,WUHU216HW,2013-09-28 12:02:00,
2013-09-28 08:07:00,49.7,45.4,30.26,WSW,248,0.7,1.1,85,0.00,,,0.00,WUHU216HW,2013-09-28 12:07:00,
2013-09-28 08:12:00,49.8,45.8,30.26,West,270,0.4,1.1,86,0.00,,,0.00,WUHU216HW,2013-09-28 12:12:00,
2013-09-28 08:17:00,49.8,45.8,30.26,West,270,0.0,0.4,86,0.00,,,0.00,WUHU216HW,2013-09-28 12:17:00,
2013-09-28 08:22:00,49.8,45.8,30.26,West,270,0.0,0.4,86,0.00,,,0.00,WUHU216HW,2013-09-28 12:22:00,
2013-09-28 08:27:00,50.0,46.0,30.26,WSW,248,0.2,0.2,86,0.00,,,0.00,WUHU216HW,2013-09-28 12:27:00,
2013-09-28 08:32:00,50.0,46.0,30.26,WSW,248,0.9,0.9,86,0.00,,,0.00,WUHU216HW,2013-09-28 12:32:00,
2013-09-28 08:37:00,50.2,46.2,30.26,WSW,248,0.0,0.9,86,0.00,,,0.00,WUHU216HW,2013-09-28 12:37:00,
2013-09-28 08:42:00,50.2,46.2,30.26,WSW,248,0.9,0.9,86,0.00,,,0.00,WUHU216HW,2013-09-28 12:42:00,
2013-09-28 08:47:00,50.4,46.4,30.26,WSW,248,0.0,0.9,86,0.00,,,0.00,WUHU216HW,2013-09-28 12:47:00,
2013-09-28 08:52:00,50.6,46.6,30.26,WSW,248,0.0,0.9,86,0.00,,,0.00,WUHU216HW,2013-09-28 12:52:00,
2013-09-28 08:57:00,50.7,46.7,30.26,WSW,248,0.0,1.1,86,0.00,,,0.00,WUHU216HW,2013-09-28 12:57:00,
2013-09-28 09:02:00,50.9,46.8,30.26,WSW,248,0.0,1.1,86,0.00,,,0.00,WUHU216HW,2013-09-28 13:02:00,
2013-09-28 09:07:00,51.1,47.0,30.26,WSW,248,0.0,0.0,86,0.00,,,0.00,WUHU216HW,2013-09-28 13:07:00,
2013-09-28 09:12:00,51.3,47.2,30.26,West,270,0.0,0.2,86,0.00,,,0.00,WUHU216HW,2013-09-28 13:12:00,
2013-09-28 09:17:00,51.5,47.4,30.26,NNW,338,0.0,0.2,86,0.00,,,0.00,WUHU216HW,2013-09-28 13:17:00,
2013-09-28 09:22:00,51.6,47.5,30.26,NNW,338,0.2,0.2,86,0.00,,,0.00,WUHU216HW,2013-09-28 13:22:00,
2013-09-28 09:27:00,52.0,47.9,30.27,North,0,0.0,0.2,86,0.00,,,0.00,WUHU216HW,2013-09-28 13:27:00,
2013-09-28 09:32:00,52.2,48.1,30.27,North,0,0.0,0.9,86,0.00,,,0.00,WUHU216HW,2013-09-28 13:32:00,
2013-09-28 09:37:00,52.5,48.4,30.27,NW,315,0.0,0.9,86,0.00,,,0.00,WUHU216HW,2013-09-28 13:37:00,
2013-09-28 09:42:00,52.9,48.8,30.27,NNW,338,0.2,1.1,86,0.00,,,0.00,WUHU216HW,2013-09-28 13:42:00,
2013-09-28 09:47:00,53.3,49.2,30.27,West,270,0.0,1.1,86,0.00,,,0.00,WUHU216HW,2013-09-28 13:47:00,
2013-09-28 09:52:00,53.6,49.5,30.27,East,90,0.0,1.3,86,0.00,,,0.00,WUHU216HW,2013-09-28 13:52:00,
2013-09-28 09:57:00,53.8,49.4,30.27,NNW,338,1.1,1.3,85,0.00,,,0.00,WUHU216HW,2013-09-28 13:57:00,
2013-09-28 10:02:00,54.2,49.8,30.27,NNW,338,0.4,1.1,85,0.00,,,0.00,WUHU216HW,2013-09-28 14:02:00,
2013-09-28 10:07:00,54.5,49.8,30.27,ENE,68,1.3,1.3,84,0.00,,,0.00,WUHU216HW,2013-09-28 14:07:00,
2013-09-28 10:12:00,54.9,50.2,30.27,East,90,0.2,1.3,84,0.00,,,0.00,WUHU216HW,2013-09-28 14:12:00,
2013-09-28 10:17:00,55.2,50.5,30.27,North,0,2.5,2.5,84,0.00,,,0.00,WUHU216HW,2013-09-28 14:17:00,
2013-09-28 10:22:00,55.6,50.5,30.27,NW,315,1.3,2.5,83,0.00,,,0.00,WUHU216HW,2013-09-28 14:22:00,
2013-09-28 10:27:00,56.0,50.3,30.27,ESE,113,1.1,1.3,81,0.00,,,0.00,WUHU216HW,2013-09-28 14:27:00,
2013-09-28 10:32:00,56.3,50.3,30.27,WSW,248,0.4,1.3,80,0.00,,,0.00,WUHU216HW,2013-09-28 14:32:00,
2013-09-28 10:37:00,56.5,50.1,30.27,NE,45,3.4,3.4,79,0.00,,,0.00,WUHU216HW,2013-09-28 14:37:00,
2013-09-28 10:42:00,56.9,50.5,30.27,NNW,338,1.6,3.4,79,0.00,,,0.00,WUHU216HW,2013-09-28 14:42:00,
2013-09-28 10:47:00,57.2,50.1,30.27,East,90,0.9,3.4,77,0.00,,,0.00,WUHU216HW,2013-09-28 14:47:00,
2013-09-28 10:52:00,57.4,50.0,30.28,WNW,293,0.7,2.9,76,0.00,,,0.00,WUHU216HW,2013-09-28 14:52:00,
2013-09-28 10:57:00,57.8,50.0,30.27,SSE,158,0.4,2.2,75,0.00,,,0.00,WUHU216HW,2013-09-28 14:57:00,
2013-09-28 11:02:00,57.9,49.8,30.28,NE,45,0.7,2.2,74,0.00,,,0.00,WUHU216HW,2013-09-28 15:02:00,
2013-09-28 11:07:00,58.1,50.0,30.28,NW,315,1.6,2.0,74,0.00,,,0.00,WUHU216HW,2013-09-28 15:07:00,
2013-09-28 11:12:00,58.3,49.8,30.27,NNE,23,1.1,2.0,73,0.00,,,0.00,WUHU216HW,2013-09-28 15:12:00,
2013-09-28 11:17:00,58.5,50.0,30.27,NW,315,0.9,2.0,73,0.00,,,0.00,WUHU216HW,2013-09-28 15:17:00,
2013-09-28 11:22:00,58.8,49.9,30.27,NNE,23,1.1,2.0,72,0.00,,,0.00,WUHU216HW,2013-09-28 15:22:00,
2013-09-28 11:27:00,59.0,50.1,30.27,South,180,0.4,2.5,72,0.00,,,0.00,WUHU216HW,2013-09-28 15:27:00,
2013-09-28 11:32:00,59.2,49.9,30.27,SE,135,0.9,2.5,71,0.00,,,0.00,WUHU216HW,2013-09-28 15:32:00,
2013-09-28 11:37:00,59.2,49.9,30.27,NNE,23,0.2,1.8,71,0.00,,,0.00,WUHU216HW,2013-09-28 15:37:00,
2013-09-28 11:42:00,59.6,49.2,30.27,NNW,338,0.7,4.0,68,0.00,,,0.00,WUHU216HW,2013-09-28 15:42:00,
2013-09-28 11:47:00,59.9,49.8,30.27,NNE,23,0.9,4.0,69,0.00,,,0.00,WUHU216HW,2013-09-28 15:47:00,
2013-09-28 11:52:00,60.1,50.8,30.26,North,0,1.8,1.8,71,0.00,,,0.00,WUHU216HW,2013-09-28 15:52:00,
2013-09-28 11:57:00,60.3,50.6,30.26,WNW,293,0.9,3.4,70,0.00,,,0.00,WUHU216HW,2013-09-28 15:57:00,
2013-09-28 12:02:00,60.3,50.6,30.26,NE,45,1.1,3.4,70,0.00,,,0.00,WUHU216HW,2013-09-28 16:02:00,
2013-09-28 12:07:00,60.5,50.0,30.26,South,180,0.7,2.5,68,0.00,,,0.00,WUHU216HW,2013-09-28 16:07:00,
2013-09-28 12:12:00,60.6,50.5,30.26,North,0,2.2,2.5,69,0.00,,,0.00,WUHU216HW,2013-09-28 16:12:00,
2013-09-28 12:17:00,61.0,50.1,30.26,SSW,203,2.2,3.6,67,0.00,,,0.00,WUHU216HW,2013-09-28 16:17:00,
2013-09-28 12:22:00,61.2,50.7,30.26,WSW,248,0.9,3.6,68,0.00,,,0.00,WUHU216HW,2013-09-28 16:22:00,
2013-09-28 12:27:00,61.4,50.1,30.26,WNW,293,0.9,2.9,66,0.00,,,0.00,WUHU216HW,2013-09-28 16:27:00,
2013-09-28 12:32:00,61.7,50.8,30.26,ENE,68,1.8,2.0,67,0.00,,,0.00,WUHU216HW,2013-09-28 16:32:00,
2013-09-28 12:37:00,62.1,51.2,30.26,ENE,68,2.5,2.5,67,0.00,,,0.00,WUHU216HW,2013-09-28 16:37:00,
2013-09-28 12:42:00,62.3,51.4,30.26,South,180,1.1,2.5,67,0.00,,,0.00,WUHU216HW,2013-09-28 16:42:00,
2013-09-28 12:47:00,62.6,51.2,30.25,SSE,158,3.1,3.1,66,0.00,,,0.00,WUHU216HW,2013-09-28 16:47:00,
2013-09-28 12:52:00,62.8,51.0,30.25,SE,135,2.9,3.1,65,0.00,,,0.00,WUHU216HW,2013-09-28 16:52:00,
2013-09-28 12:57:00,63.2,50.6,30.25,SE,135,1.1,2.9,63,0.00,,,0.00,WUHU216HW,2013-09-28 16:57:00,
2013-09-28 13:02:00,63.5,51.3,30.25,NE,45,0.4,3.6,64,0.00,,,0.00,WUHU216HW,2013-09-28 17:02:00,
2013-09-28 13:07:00,63.5,50.8,30.25,WSW,248,0.7,3.6,63,0.00,,,0.00,WUHU216HW,2013-09-28 17:07:00,
2013-09-28 13:12:00,63.7,50.6,30.25,SSW,203,0.0,1.1,62,0.00,,,0.00,WUHU216HW,2013-09-28 17:12:00,
2013-09-28 13:17:00,63.7,50.6,30.25,SE,135,1.1,1.1,62,0.00,,,0.00,WUHU216HW,2013-09-28 17:17:00,
2013-09-28 13:22:00,64.1,50.5,30.25,SW,225,1.1,2.0,61,0.00,,,0.00,WUHU216HW,2013-09-28 17:22:00,
2013-09-28 13:27:00,64.4,49.9,30.25,SSE,158,2.9,2.9,59,0.00,,,0.00,WUHU216HW,2013-09-28 17:27:00,
2013-09-28 13:32:00,64.6,50.5,30.24,SSE,158,0.4,2.9,60,0.00,,,0.00,WUHU216HW,2013-09-28 17:32:00,
2013-09-28 13:37:00,64.6,50.5,30.24,SE,135,2.5,2.5,60,0.00,,,0.00,WUHU216HW,2013-09-28 17:37:00,
2013-09-28 13:42:00,64.8,50.7,30.24,SSW,203,2.2,4.0,60,0.00,,,0.00,WUHU216HW,2013-09-28 17:42:00,
2013-09-28 13:47:00,64.8,51.2,30.24,South,180,0.9,4.0,61,0.00,,,0.00,WUHU216HW,2013-09-28 17:47:00,
2013-09-28 13:52:00,65.0,50.5,30.24,North,0,3.4,3.4,59,0.00,,,0.00,WUHU216HW,2013-09-28 17:52:00,
2013-09-28 13:57:00,65.0,51.4,30.23,SSE,158,1.6,3.4,61,0.00,,,0.00,WUHU216HW,2013-09-28 17:57:00,
2013-09-28 14:02:00,65.1,51.5,30.23,ESE,113,0.9,1.6,61,0.00,,,0.00,WUHU216HW,2013-09-28 18:02:00,
2013-09-28 14:07:00,65.1,51.0,30.23,SW,225,0.7,1.6,60,0.00,,,0.00,WUHU216HW,2013-09-28 18:07:00,
2013-09-28 14:12:00,65.3,51.2,30.23,SE,135,1.3,1.6,60,0.00,,,0.00,WUHU216HW,2013-09-28 18:12:00,
2013-09-28 14:18:00,65.5,51.4,30.23,SSE,158,1.1,1.8,60,0.00,,,0.00,WUHU216HW,2013-09-28 18:18:00,
2013-09-28 14:23:00,65.5,51.4,30.23,SSE,158,0.7,1.8,60,0.00,,,0.00,WUHU216HW,2013-09-28 18:23:00,
2013-09-28 14:28:00,65.3,51.2,30.23,NNE,23,0.4,1.6,60,0.00,,,0.00,WUHU216HW,2013-09-28 18:28:00,
2013-09-28 14:33:00,65.0,50.9,30.22,North,0,1.6,2.2,60,0.00,,,0.00,WUHU216HW,2013-09-28 18:33:00,
2013-09-28 14:38:00,65.0,50.9,30.22,South,180,0.9,2.2,60,0.00,,,0.00,WUHU216HW,2013-09-28 18:38:00,
2013-09-28 14:43:00,65.0,50.9,30.22,North,0,1.3,2.2,60,0.00,,,0.00,WUHU216HW,2013-09-28 18:43:00,
2013-09-28 14:48:00,65.0,49.5,30.22,SSW,203,0.4,2.2,57,0.00,,,0.00,WUHU216HW,2013-09-28 18:48:00,
2013-09-28 14:53:00,65.1,49.6,30.22,NW,315,0.4,1.6,57,0.00,,,0.00,WUHU216HW,2013-09-28 18:53:00,
2013-09-28 14:58:00,65.5,50.0,30.22,NE,45,1.6,1.6,57,0.00,,,0.00,WUHU216HW,2013-09-28 18:58:00,
2013-09-28 15:03:00,65.9,50.8,30.22,SE,135,3.6,3.6,58,0.00,,,0.00,WUHU216HW,2013-09-28 19:03:00,
2013-09-28 15:08:00,66.0,50.5,30.22,SE,135,3.1,3.6,57,0.00,,,0.00,WUHU216HW,2013-09-28 19:08:00,
2013-09-28 15:13:00,66.0,49.0,30.22,NNW,338,2.5,4.0,54,0.00,,,0.00,WUHU216HW,2013-09-28 19:13:00,
2013-09-28 15:18:00,66.2,50.6,30.22,SE,135,2.5,2.5,57,0.00,,,0.00,WUHU216HW,2013-09-28 19:18:00,
2013-09-28 15:23:00,66.4,50.8,30.22,SSW,203,0.7,2.5,57,0.00,,,0.00,WUHU216HW,2013-09-28 19:23:00,
2013-09-28 15:28:00,66.4,50.8,30.22,NNE,23,0.7,1.3,57,0.00,,,0.00,WUHU216HW,2013-09-28 19:28:00,
2013-09-28 15:33:00,66.4,50.8,30.22,SSW,203,1.8,2.0,57,0.00,,,0.00,WUHU216HW,2013-09-28 19:33:00,
2013-09-28 15:38:00,66.4,50.8,30.21,NNW,338,1.8,2.0,57,0.00,,,0.00,WUHU216HW,2013-09-28 19:38:00,
2013-09-28 15:43:00,66.4,50.8,30.21,SSW,203,0.4,1.8,57,0.00,,,0.00,WUHU216HW,2013-09-28 19:43:00,
2013-09-28 15:48:00,66.2,50.2,30.21,South,180,0.4,1.1,56,0.00,,,0.00,WUHU216HW,2013-09-28 19:48:00,
2013-09-28 15:53:00,66.4,50.3,30.21,West,270,0.2,1.8,56,0.00,,,0.00,WUHU216HW,2013-09-28 19:53:00,
2013-09-28 15:58:00,66.4,50.3,30.21,West,270,0.0,1.8,56,0.00,,,0.00,WUHU216HW,2013-09-28 19:58:00,
2013-09-28 16:03:00,66.2,50.6,30.21,SE,135,0.4,1.1,57,0.00,,,0.00,WUHU216HW,2013-09-28 20:03:00,
2013-09-28 16:08:00,66.0,50.5,30.21,SSE,158,2.0,2.0,57,0.00,,,0.00,WUHU216HW,2013-09-28 20:08:00,
2013-09-28 16:13:00,66.0,50.5,30.21,SE,135,1.1,2.7,57,0.00,,,0.00,WUHU216HW,2013-09-28 20:13:00,
2013-09-28 16:18:00,66.0,50.5,30.21,ESE,113,1.1,2.7,57,0.00,,,0.00,WUHU216HW,2013-09-28 20:18:00,
2013-09-28 16:23:00,66.2,50.6,30.21,NW,315,1.3,2.5,57,0.00,,,0.00,WUHU216HW,2013-09-28 20:23:00,
2013-09-28 16:28:00,66.4,50.8,30.21,South,180,0.2,2.5,57,0.00,,,0.00,WUHU216HW,2013-09-28 20:28:00,
2013-09-28 16:33:00,66.4,50.8,30.21,North,0,2.0,2.7,57,0.00,,,0.00,WUHU216HW,2013-09-28 20:33:00,
2013-09-28 16:38:00,66.4,50.3,30.21,SSE,158,2.2,2.7,56,0.00,,,0.00,WUHU216HW,2013-09-28 20:38:00,
2013-09-28 16:43:00,66.0,50.5,30.20,SE,135,0.7,2.2,57,0.00,,,0.00,WUHU216HW,2013-09-28 20:43:00,
2013-09-28 16:48:00,66.2,51.1,30.20,SSE,158,0.4,1.1,58,0.00,,,0.00,WUHU216HW,2013-09-28 20:48:00,
2013-09-28 16:53:00,66.2,51.1,30.20,SSE,158,2.0,2.0,58,0.00,,,0.00,WUHU216HW,2013-09-28 20:53:00,
2013-09-28 16:58:00,67.3,52.2,30.20,SSE,158,2.5,2.5,58,0.00,,,0.00,WUHU216HW,2013-09-28 20:58:00,
2013-09-28 17:03:00,68.2,53.0,30.20,SSE,158,0.0,2.5,58,0.00,,,0.00,WUHU216HW,2013-09-28 21:03:00,
2013-09-28 17:08:00,68.7,53.0,30.20,NNE,23,0.9,2.5,57,0.00,,,0.00,WUHU216HW,2013-09-28 21:08:00,
2013-09-28 17:13:00,68.7,53.5,30.20,SE,135,0.4,1.1,58,0.00,,,0.00,WUHU216HW,2013-09-28 21:13:00,
2013-09-28 17:18:00,68.2,52.5,30.21,SSE,158,1.6,1.8,57,0.00,,,0.00,WUHU216HW,2013-09-28 21:18:00,
2013-09-28 17:23:00,67.8,52.2,30.21,SSE,158,0.0,1.8,57,0.00,,,0.00,WUHU216HW,2013-09-28 21:23:00,
2013-09-28 17:28:00,67.5,51.9,30.20,SE,135,0.2,1.6,57,0.00,,,0.00,WUHU216HW,2013-09-28 21:28:00,
2013-09-28 17:33:00,67.1,51.5,30.20,SSE,158,0.7,1.3,57,0.00,,,0.00,WUHU216HW,2013-09-28 21:33:00,
2013-09-28 17:38:00,66.8,51.7,30.20,ESE,113,0.0,1.3,58,0.00,,,0.00,WUHU216HW,2013-09-28 21:38:00,
2013-09-28 17:43:00,66.2,51.1,30.20,ESE,113,0.0,0.7,58,0.00,,,0.00,WUHU216HW,2013-09-28 21:43:00,
2013-09-28 17:48:00,66.0,51.4,30.20,SSE,158,0.0,0.0,59,0.00,,,0.00,WUHU216HW,2013-09-28 21:48:00,
2013-09-28 17:53:00,66.0,51.4,30.20,SSE,158,0.0,0.0,59,0.00,,,0.00,WUHU216HW,2013-09-28 21:53:00,
2013-09-28 17:58:00,65.5,51.4,30.20,SSE,158,0.9,0.9,60,0.00,,,0.00,WUHU216HW,2013-09-28 21:58:00,
2013-09-28 18:03:00,65.3,51.7,30.20,SSE,158,0.4,0.9,61,0.00,,,0.00,WUHU216HW,2013-09-28 22:03:00,
2013-09-28 18:08:00,65.3,51.7,30.20,SSE,158,0.7,0.9,61,0.00,,,0.00,WUHU216HW,2013-09-28 22:08:00,
2013-09-28 18:13:00,65.3,52.1,30.20,SSE,158,0.4,0.7,62,0.00,,,0.00,WUHU216HW,2013-09-28 22:13:00,
2013-09-28 18:18:00,65.3,52.1,30.20,SSE,158,0.0,0.7,62,0.00,,,0.00,WUHU216HW,2013-09-28 22:18:00,
2013-09-28 18:23:00,65.0,51.8,30.20,SSE,158,0.0,0.0,62,0.00,,,0.00,WUHU216HW,2013-09-28 22:23:00,
2013-09-28 18:28:00,64.6,51.4,30.20,SSE,158,0.0,0.0,62,0.00,,,0.00,WUHU216HW,2013-09-28 22:28:00,
2013-09-28 18:33:00,64.2,51.1,30.20,SSE,158,0.0,0.0,62,0.00,,,0.00,WUHU216HW,2013-09-28 22:33:00,
2013-09-28 18:38:00,63.9,51.2,30.21,SSE,158,0.0,0.0,63,0.00,,,0.00,WUHU216HW,2013-09-28 22:38:00,
2013-09-28 18:43:00,63.5,50.8,30.20,SSE,158,0.0,0.0,63,0.00,,,0.00,WUHU216HW,2013-09-28 22:43:00,
2013-09-28 18:48:00,63.2,51.0,30.20,SSE,158,0.0,0.0,64,0.00,,,0.00,WUHU216HW,2013-09-28 22:48:00,
2013-09-28 18:53:00,62.8,50.6,30.20,SE,135,0.0,0.0,64,0.00,,,0.00,WUHU216HW,2013-09-28 22:53:00,
2013-09-28 18:58:00,62.4,50.2,30.20,SE,135,0.0,0.0,64,0.00,,,0.00,WUHU216HW,2013-09-28 22:58:00,
2013-09-28 19:03:00,62.1,50.3,30.20,SE,135,0.0,0.0,65,0.00,,,0.00,WUHU216HW,2013-09-28 23:03:00,
2013-09-28 19:08:00,61.7,50.0,30.20,SE,135,0.0,0.4,65,0.00,,,0.00,WUHU216HW,2013-09-28 23:08:00,
2013-09-28 19:13:00,61.4,49.7,30.20,SE,135,0.0,0.4,65,0.00,,,0.00,WUHU216HW,2013-09-28 23:13:00,
2013-09-28 19:18:00,61.0,49.3,30.20,SE,135,0.0,0.0,65,0.00,,,0.00,WUHU216HW,2013-09-28 23:18:00,
2013-09-28 19:23:00,60.6,48.9,30.20,SE,135,0.0,0.0,65,0.00,,,0.00,WUHU216HW,2013-09-28 23:23:00,
2013-09-28 19:28:00,60.3,48.6,30.20,SE,135,0.0,0.0,65,0.00,,,0.00,WUHU216HW,2013-09-28 23:28:00,
2013-09-28 19:33:00,60.1,48.8,30.20,SE,135,0.0,0.0,66,0.00,,,0.00,WUHU216HW,2013-09-28 23:33:00,
2013-09-28 19:38:00,59.9,48.7,30.20,SE,135,0.0,0.0,66,0.00,,,0.00,WUHU216HW,2013-09-28 23:38:00,
2013-09-28 19:43:00,59.6,48.4,30.20,SE,135,0.0,0.0,66,0.00,,,0.00,WUHU216HW,2013-09-28 23:43:00,
2013-09-28 19:48:00,59.2,48.4,30.20,SE,135,0.0,0.0,67,0.00,,,0.00,WUHU216HW,2013-09-28 23:48:00,
2013-09-28 19:53:00,59.0,47.8,30.20,SE,135,0.0,0.0,66,0.00,,,0.00,WUHU216HW,2013-09-28 23:53:00,
2013-09-28 19:58:00,58.7,47.5,30.20,SE,135,0.0,0.0,66,0.00,,,0.00,WUHU216HW,2013-09-28 23:58:00,
2013-09-28 20:03:00,58.5,47.7,30.20,SE,135,0.0,0.0,67,0.00,,,0.00,WUHU216HW,2013-09-29 00:03:00,
2013-09-28 20:08:00,58.1,47.3,30.20,SE,135,0.0,0.0,67,0.00,,,0.00,WUHU216HW,2013-09-29 00:08:00,
2013-09-28 20:13:00,57.9,47.5,30.20,SE,135,0.0,0.0,68,0.00,,,0.00,WUHU216HW,2013-09-29 00:13:00,
2013-09-28 20:18:00,57.8,47.4,30.21,SE,135,0.0,0.0,68,0.00,,,0.00,WUHU216HW,2013-09-29 00:18:00,
2013-09-28 20:23:00,57.4,47.1,30.21,SE,135,0.0,0.0,68,0.00,,,0.00,WUHU216HW,2013-09-29 00:23:00,
2013-09-28 20:28:00,57.4,47.4,30.21,SE,135,0.0,0.0,69,0.00,,,0.00,WUHU216HW,2013-09-29 00:28:00,
2013-09-28 20:33:00,57.0,47.1,30.20,SE,135,0.0,0.0,69,0.00,,,0.00,WUHU216HW,2013-09-29 00:33:00,
2013-09-28 20:38:00,56.9,47.0,30.20,SE,135,0.0,0.0,69,0.00,,,0.00,WUHU216HW,2013-09-29 00:38:00,
2013-09-28 20:43:00,56.7,46.8,30.21,SE,135,0.0,0.0,69,0.00,,,0.00,WUHU216HW,2013-09-29 00:43:00,
2013-09-28 20:48:00,56.5,47.0,30.20,East,90,0.0,0.0,70,0.00,,,0.00,WUHU216HW,2013-09-29 00:48:00,
2013-09-28 20:53:00,56.3,46.8,30.21,East,90,0.0,0.0,70,0.00,,,0.00,WUHU216HW,2013-09-29 00:53:00,
2013-09-28 20:58:00,56.3,46.8,30.20,East,90,0.0,0.0,70,0.00,,,0.00,WUHU216HW,2013-09-29 00:58:00,
2013-09-28 21:03:00,56.0,46.8,30.20,East,90,0.0,0.0,71,0.00,,,0.00,WUHU216HW,2013-09-29 01:03:00,
2013-09-28 21:08:00,56.0,46.8,30.20,East,90,0.0,0.0,71,0.00,,,0.00,WUHU216HW,2013-09-29 01:08:00,
2013-09-28 21:13:00,55.8,47.0,30.21,East,90,0.0,0.0,72,0.00,,,0.00,WUHU216HW,2013-09-29 01:13:00,
2013-09-28 21:18:00,55.6,46.8,30.21,East,90,0.0,0.0,72,0.00,,,0.00,WUHU216HW,2013-09-29 01:18:00,
2013-09-28 21:23:00,55.6,46.8,30.21,East,90,0.0,0.2,72,0.00,,,0.00,WUHU216HW,2013-09-29 01:23:00,
2013-09-28 21:28:00,55.4,47.0,30.21,East,90,0.0,0.2,73,0.00,,,0.00,WUHU216HW,2013-09-29 01:28:00,
2013-09-28 21:33:00,55.2,46.8,30.21,East,90,0.0,0.0,73,0.00,,,0.00,WUHU216HW,2013-09-29 01:33:00,
2013-09-28 21:38:00,55.2,46.8,30.21,East,90,0.0,0.0,73,0.00,,,0.00,WUHU216HW,2013-09-29 01:38:00,
2013-09-28 21:43:00,55.2,46.8,30.21,East,90,0.0,0.0,73,0.00,,,0.00,WUHU216HW,2013-09-29 01:43:00,
2013-09-28 21:48:00,55.2,47.2,30.21,East,90,0.0,0.0,74,0.00,,,0.00,WUHU216HW,2013-09-29 01:48:00,
2013-09-28 21:53:00,55.1,47.1,30.21,East,90,0.0,0.0,74,0.00,,,0.00,WUHU216HW,2013-09-29 01:53:00,
2013-09-28 21:58:00,54.9,46.9,30.21,East,90,0.0,0.0,74,0.00,,,0.00,WUHU216HW,2013-09-29 01:58:00,
2013-09-28 22:03:00,54.9,46.9,30.21,East,90,0.0,0.0,74,0.00,,,0.00,WUHU216HW,2013-09-29 02:03:00,
2013-09-28 22:08:00,54.7,47.0,30.21,East,90,0.0,0.0,75,0.00,,,0.00,WUHU216HW,2013-09-29 02:08:00,
2013-09-28 22:14:00,54.5,46.8,30.21,East,90,0.0,0.0,75,0.00,,,0.00,WUHU216HW,2013-09-29 02:14:00,
2013-09-28 22:19:00,54.5,46.8,30.20,East,90,0.0,0.0,75,0.00,,,0.00,WUHU216HW,2013-09-29 02:19:00,
2013-09-28 22:24:00,54.3,47.0,30.20,East,90,0.0,0.0,76,0.00,,,0.00,WUHU216HW,2013-09-29 02:24:00,
2013-09-28 22:29:00,54.3,47.0,30.20,East,90,0.0,0.0,76,0.00,,,0.00,WUHU216HW,2013-09-29 02:29:00,
2013-09-28 22:34:00,54.2,46.9,30.20,East,90,0.0,0.4,76,0.00,,,0.00,WUHU216HW,2013-09-29 02:34:00,
2013-09-28 22:39:00,54.0,46.7,30.20,East,90,0.0,0.4,76,0.00,,,0.00,WUHU216HW,2013-09-29 02:39:00,
2013-09-28 22:44:00,54.0,46.7,30.20,SE,135,0.2,0.9,76,0.00,,,0.00,WUHU216HW,2013-09-29 02:44:00,
2013-09-28 22:49:00,53.8,46.8,30.20,ESE,113,0.0,0.9,77,0.00,,,0.00,WUHU216HW,2013-09-29 02:49:00,
2013-09-28 22:54:00,53.8,46.8,30.20,ESE,113,0.0,0.2,77,0.00,,,0.00,WUHU216HW,2013-09-29 02:54:00,
2013-09-28 22:59:00,53.6,46.6,30.20,ESE,113,0.0,0.2,77,0.00,,,0.00,WUHU216HW,2013-09-29 02:59:00,
2013-09-28 23:04:00,53.4,46.4,30.20,SE,135,0.0,0.4,77,0.00,,,0.00,WUHU216HW,2013-09-29 03:04:00,
2013-09-28 23:09:00,53.4,46.8,30.20,SE,135,0.0,0.4,78,0.00,,,0.00,WUHU216HW,2013-09-29 03:09:00,
2013-09-28 23:14:00,53.3,46.7,30.20,SE,135,0.0,0.0,78,0.00,,,0.00,WUHU216HW,2013-09-29 03:14:00,
2013-09-28 23:19:00,53.3,46.7,30.20,SE,135,0.0,0.0,78,0.00,,,0.00,WUHU216HW,2013-09-29 03:19:00,
2013-09-28 23:24:00,53.1,46.5,30.20,SE,135,0.0,0.0,78,0.00,,,0.00,WUHU216HW,2013-09-29 03:24:00,
2013-09-28 23:29:00,53.1,46.8,30.20,SE,135,0.0,0.0,79,0.00,,,0.00,WUHU216HW,2013-09-29 03:29:00,
2013-09-28 23:34:00,52.9,46.6,30.20,SE,135,0.0,0.0,79,0.00,,,0.00,WUHU216HW,2013-09-29 03:34:00,
2013-09-28 23:39:00,52.9,46.6,30.20,SE,135,0.0,0.0,79,0.00,,,0.00,WUHU216HW,2013-09-29 03:39:00,
2013-09-28 23:44:00,52.7,46.1,30.20,SE,135,0.0,0.0,78,0.00,,,0.00,WUHU216HW,2013-09-29 03:44:00,
2013-09-28 23:49:00,52.7,46.1,30.20,SE,135,0.0,0.7,78,0.00,,,0.00,WUHU216HW,2013-09-29 03:49:00,
2013-09-28 23:54:00,52.7,46.1,30.19,SE,135,0.0,0.7,78,0.00,,,0.00,WUHU216HW,2013-09-29 03:54:00,
2013-09-28 23:59:00,52.5,45.9,30.19,SE,135,0.0,0.0,78,0.00,,,0.00,WUHU216HW,2013-09-29 03:59:00,